Time;durP1;ratioP1;P1;durP2;ratioP2;P2;SDS_P1;SDS_P2;PMS_P1;PMS_P2;Temp;Humidity;BMP_temperature;BMP_pressure;BME280_temperature;BME280_humidity;BME280_pressure;Samples;Min_cycle;Max_cycle;Signal;HPM_P1;HPM_P2
2022/01/20 00:01:42;;;;;;;0.13;0.13;;;;;;;24.46;18.16;97546.88;5035360;28;20426;-73
2022/01/20 00:04:16;;;;;;;0.20;0.20;;;;;;;24.52;18.08;97540.00;5035339;28;20516;-73
2022/01/20 00:28:21;;;;;;;0.10;0.10;;;;;;;24.46;18.08;97491.50;5015030;28;20022;-72
2022/01/20 00:30:53;;;;;;;0.20;0.15;;;;;;;24.44;17.81;97486.38;5014858;28;20048;-72
2022/01/20 00:33:34;;;;;;;0.10;0.10;;;;;;;24.50;17.79;97482.25;5014879;28;20464;-72
2022/01/20 00:38:37;;;;;;;0.10;0.10;;;;;;;24.40;17.98;97471.06;5014824;28;20026;-73
2022/01/20 00:41:07;;;;;;;0.10;0.10;;;;;;;24.38;17.79;97469.47;5015328;28;20372;-73
2022/01/20 00:43:32;;;;;;;0.10;0.10;;;;;;;24.37;18.06;97473.34;5014618;28;20121;-73
2022/01/20 00:45:58;;;;;;;0.10;0.10;;;;;;;24.43;17.77;97462.97;5014848;28;20037;-73
2022/01/20 00:48:23;;;;;;;0.10;0.10;;;;;;;24.36;17.78;97471.75;5013453;28;20046;-73
2022/01/20 00:50:49;;;;;;;0.10;0.10;;;;;;;24.49;17.90;97467.03;5014852;28;20026;-73
2022/01/20 00:53:14;;;;;;;0.10;0.10;;;;;;;24.40;17.88;97471.84;5014807;28;20423;-73
2022/01/20 00:55:39;;;;;;;0.10;0.10;;;;;;;24.38;17.96;97465.94;5014797;28;20037;-73
2022/01/20 00:58:05;;;;;;;0.10;0.10;;;;;;;24.41;17.63;97462.53;5014679;28;20049;-73
2022/01/20 01:00:30;;;;;;;0.10;0.10;;;;;;;24.38;17.76;97457.75;5014260;28;20519;-73
2022/01/20 01:02:56;;;;;;;0.10;0.10;;;;;;;24.39;17.90;97459.34;5014313;28;20068;-73
2022/01/20 01:05:22;;;;;;;0.10;0.10;;;;;;;24.40;17.64;97449.22;5014231;28;20107;-74
2022/01/20 01:07:49;;;;;;;0.10;0.10;;;;;;;24.40;17.88;97455.47;5014464;28;20038;-73
2022/01/20 01:10:20;;;;;;;0.10;0.10;;;;;;;24.43;17.58;97448.53;5014533;28;20033;-73
2022/01/20 01:12:59;;;;;;;0.10;0.10;;;;;;;24.35;17.77;97439.34;5014119;28;20076;-73
2022/01/20 01:15:33;;;;;;;0.10;0.10;;;;;;;24.32;17.81;97448.25;5014290;28;20053;-72
2022/01/20 01:23:11;;;;;;;0.10;0.10;;;;;;;24.37;17.46;97439.81;5034192;28;20109;-74
2022/01/20 01:25:36;;;;;;;0.10;0.10;;;;;;;24.37;17.42;97431.63;5033759;28;20497;-73
2022/01/20 01:28:01;;;;;;;0.10;0.10;;;;;;;24.40;17.42;97433.63;5033886;28;20036;-73
2022/01/20 01:30:47;;;;;;;0.10;0.10;;;;;;;24.43;17.49;97424.75;5033930;28;20085;-73
2022/01/20 01:33:12;;;;;;;0.10;0.10;;;;;;;24.44;17.15;97420.06;5033537;28;20045;-73
2022/01/20 01:35:40;;;;;;;0.10;0.10;;;;;;;24.36;17.39;97430.03;5033428;28;20136;-74
2022/01/20 01:40:33;;;;;;;0.10;0.10;;;;;;;24.41;17.31;97413.38;5033262;28;20448;-74
2022/01/20 01:43:01;;;;;;;0.10;0.10;;;;;;;24.38;17.09;97398.50;5033318;28;20029;-74
2022/01/20 01:45:33;;;;;;;0.10;0.10;;;;;;;24.32;17.52;97394.47;5033263;28;20112;-73
2022/01/20 01:47:59;;;;;;;0.10;0.10;;;;;;;24.33;17.44;97395.25;5033368;28;20046;-74
2022/01/20 01:50:25;;;;;;;0.10;0.10;;;;;;;24.38;17.11;97393.03;5033745;28;20032;-74
2022/01/20 01:52:51;;;;;;;0.10;0.10;;;;;;;24.30;17.20;97385.03;5033693;28;20475;-73
2022/01/20 01:55:16;;;;;;;0.10;0.10;;;;;;;24.35;17.43;97388.31;5033392;28;20467;-73
2022/01/20 01:57:42;;;;;;;0.10;0.10;;;;;;;24.28;17.35;97376.41;5033333;28;20044;-73
2022/01/20 02:00:08;;;;;;;0.10;0.10;;;;;;;24.27;17.51;97383.03;5033388;28;20030;-73
2022/01/20 02:02:34;;;;;;;0.10;0.10;;;;;;;24.30;17.35;97385.03;5033127;28;20025;-73
2022/01/20 02:05:02;;;;;;;0.10;0.10;;;;;;;24.42;17.06;97387.66;5033596;28;20028;-73
2022/01/20 02:08:04;;;;;;;0.10;0.10;;;;;;;24.27;17.42;97377.56;5033513;28;20384;-73
2022/01/20 02:21:00;;;;;;;0.10;0.10;;;;;;;24.32;17.05;97369.13;5032912;28;20026;-73
2022/01/20 02:23:26;;;;;;;0.00;0.00;;;;;;;24.28;17.46;97365.50;5033326;28;20022;-73
2022/01/20 02:25:52;;;;;;;0.10;0.10;;;;;;;24.35;16.96;97360.19;5033129;28;20361;-73
2022/01/20 02:28:17;;;;;;;0.10;0.10;;;;;;;24.37;17.32;97360.66;5032915;28;20032;-73
2022/01/20 02:30:43;;;;;;;0.10;0.10;;;;;;;24.30;17.31;97357.75;5032800;28;20040;-73
2022/01/20 02:33:13;;;;;;;0.10;0.10;;;;;;;24.32;17.33;97347.28;5032924;28;20025;-73
2022/01/20 02:36:06;;;;;;;0.10;0.10;;;;;;;24.47;17.07;97342.94;5033162;28;20037;-74
2022/01/20 02:38:50;;;;;;;0.10;0.10;;;;;;;24.34;17.07;97337.59;4952761;29;20175;-74
2022/01/20 02:46:46;;;;;;;0.10;0.10;;;;;;;24.32;16.90;97322.72;4952770;29;20544;-73
2022/01/20 02:49:15;;;;;;;0.10;0.10;;;;;;;24.28;17.08;97319.88;4953257;29;20039;-73
2022/01/20 02:51:53;;;;;;;0.10;0.10;;;;;;;24.38;17.15;97321.28;4952640;29;20081;-73
2022/01/20 02:54:19;;;;;;;0.10;0.10;;;;;;;24.32;17.31;97320.00;4952719;29;20482;-73
2022/01/20 02:56:45;;;;;;;0.10;0.10;;;;;;;24.28;17.28;97316.38;4952674;29;20060;-72
2022/01/20 02:59:10;;;;;;;0.10;0.10;;;;;;;24.36;17.05;97318.13;4952509;29;20040;-72
2022/01/20 03:01:36;;;;;;;0.10;0.10;;;;;;;24.34;17.20;97313.03;4952438;29;20027;-74
2022/01/20 03:04:03;;;;;;;0.10;0.10;;;;;;;24.25;17.10;97300.69;4952588;29;20573;-73
2022/01/20 03:06:28;;;;;;;0.10;0.10;;;;;;;24.29;17.11;97296.91;4952413;29;20107;-73
2022/01/20 03:08:53;;;;;;;0.10;0.10;;;;;;;24.23;17.01;97297.53;4952732;29;20500;-73
2022/01/20 03:11:19;;;;;;;0.10;0.10;;;;;;;24.29;17.15;97291.47;4953204;28;20039;-73
2022/01/20 03:13:44;;;;;;;0.10;0.10;;;;;;;24.25;17.13;97295.25;4956084;29;20027;-73
2022/01/20 03:16:09;;;;;;;0.10;0.10;;;;;;;24.32;16.95;97284.53;5004380;28;20554;-73
2022/01/20 03:18:35;;;;;;;0.10;0.10;;;;;;;24.23;17.12;97275.72;5016557;28;20030;-73
2022/01/20 03:21:00;;;;;;;0.10;0.10;;;;;;;24.21;16.92;97270.59;5013148;28;20072;-72
2022/01/20 03:23:26;;;;;;;0.10;0.10;;;;;;;24.26;17.16;97280.47;4997006;28;20033;-74
2022/01/20 03:25:51;;;;;;;0.10;0.10;;;;;;;24.28;17.34;97278.16;4997218;28;20369;-73
2022/01/20 03:28:16;;;;;;;0.10;0.10;;;;;;;24.22;17.02;97279.59;4997101;28;20029;-73
2022/01/20 03:30:42;;;;;;;0.10;0.10;;;;;;;24.23;17.19;97278.44;4996797;28;20022;-74
2022/01/20 03:33:07;;;;;;;0.10;0.10;;;;;;;24.19;17.15;97270.16;4996746;28;20029;-73
2022/01/20 03:35:33;;;;;;;0.10;0.10;;;;;;;24.27;17.42;97265.69;4997108;28;20019;-73
2022/01/20 03:37:58;;;;;;;0.10;0.10;;;;;;;24.25;17.22;97262.50;4996716;28;20453;-74
2022/01/20 03:40:24;;;;;;;0.10;0.10;;;;;;;24.28;17.18;97267.25;4997019;28;20044;-73
2022/01/20 03:42:50;;;;;;;0.10;0.10;;;;;;;24.37;17.25;97265.94;4997715;28;20034;-73
2022/01/20 03:45:15;;;;;;;0.10;0.10;;;;;;;24.38;17.30;97263.97;4997067;28;20019;-73
2022/01/20 03:47:42;;;;;;;2.75;0.35;;;;;;;24.35;17.44;97264.69;4996892;28;20392;-73
2022/01/20 03:50:59;;;;;;;3.15;0.28;;;;;;;24.46;16.82;97260.28;4996918;28;20038;-73
2022/01/20 03:52:53;;;;;;;1.98;0.20;;;;;;;24.52;17.27;97249.88;4996372;28;20034;-72
2022/01/20 03:55:18;;;;;;;3.65;0.40;;;;;;;24.53;17.17;97254.19;4996464;28;20026;-73
2022/01/20 03:57:43;;;;;;;2.03;0.20;;;;;;;24.54;17.23;97251.13;4975757;28;20030;-73
2022/01/20 04:00:09;;;;;;;2.70;0.20;;;;;;;24.57;17.25;97248.84;4993870;28;20466;-73
2022/01/20 04:02:35;;;;;;;1.45;0.20;;;;;;;24.68;17.10;97241.66;4975436;28;20027;-74
2022/01/20 04:05:00;;;;;;;0.20;0.20;;;;;;;24.55;17.32;97244.50;4992827;28;20024;-74
2022/01/20 04:07:26;;;;;;;1.48;0.10;;;;;;;24.51;17.01;97246.34;4995850;28;20539;-73
2022/01/20 04:09:51;;;;;;;0.10;0.10;;;;;;;24.66;17.08;97243.94;4996149;28;20031;-73
2022/01/20 04:12:16;;;;;;;0.80;0.20;;;;;;;24.65;17.00;97242.38;4977946;28;20027;-73
2022/01/20 04:14:47;;;;;;;0.10;0.10;;;;;;;24.56;17.12;97226.22;4995689;28;20510;-73
2022/01/20 04:17:17;;;;;;;0.17;0.17;;;;;;;24.69;17.06;97226.84;4995889;28;20037;-73
2022/01/20 04:19:43;;;;;;;0.25;0.10;;;;;;;24.65;17.17;97224.06;4995990;28;20038;-73
2022/01/20 04:22:08;;;;;;;0.10;0.10;;;;;;;24.72;17.04;97218.75;5007161;28;20415;-73
2022/01/20 04:24:34;;;;;;;0.20;0.10;;;;;;;24.73;17.06;97212.13;5016899;28;20095;-74
2022/01/20 04:27:00;;;;;;;0.10;0.10;;;;;;;24.68;17.09;97204.22;5016578;28;20026;-74
2022/01/20 04:29:26;;;;;;;0.38;0.10;;;;;;;24.63;17.08;97201.78;5020471;28;20049;-74
2022/01/20 04:31:51;;;;;;;0.10;0.10;;;;;;;24.67;16.79;97201.84;5016256;28;20033;-73
2022/01/20 04:34:17;;;;;;;0.10;0.10;;;;;;;24.72;17.02;97193.38;5019752;28;20034;-72
2022/01/20 04:36:45;;;;;;;0.10;0.10;;;;;;;24.71;16.91;97191.78;4998536;28;20030;-72
2022/01/20 04:39:16;;;;;;;0.17;0.17;;;;;;;24.75;17.03;97181.75;5014356;28;20045;-73
2022/01/20 04:41:42;;;;;;;0.10;0.10;;;;;;;24.80;16.97;97194.31;5015500;28;20072;-73
2022/01/20 04:44:30;;;;;;;0.15;0.15;;;;;;;24.77;16.83;97189.56;5016154;28;20026;-74
2022/01/20 04:47:06;;;;;;;0.10;0.10;;;;;;;24.93;16.93;97182.88;5003104;28;20034;-74
2022/01/20 04:57:44;;;;;;;0.13;0.13;;;;;;;24.92;16.58;97156.72;5034693;28;20127;-73
2022/01/20 05:00:09;;;;;;;0.10;0.10;;;;;;;24.94;16.58;97156.38;5034535;28;20029;-73
2022/01/20 05:02:35;;;;;;;0.13;0.13;;;;;;;24.84;16.62;97144.06;5035260;28;20030;-72
2022/01/20 05:05:00;;;;;;;0.10;0.10;;;;;;;24.91;16.50;97155.13;5033981;28;20021;-73
2022/01/20 05:07:28;;;;;;;0.13;0.13;;;;;;;24.97;16.34;97146.66;5034388;28;20025;-72
2022/01/20 05:09:56;;;;;;;0.10;0.10;;;;;;;24.94;16.62;97148.16;5034330;28;20038;-74
2022/01/20 05:12:28;;;;;;;0.20;0.20;;;;;;;24.98;16.53;97150.97;5034242;28;20026;-73
2022/01/20 05:14:54;;;;;;;0.10;0.10;;;;;;;24.97;16.66;97149.38;5035011;28;20372;-73
2022/01/20 05:17:20;;;;;;;0.10;0.10;;;;;;;25.00;16.45;97148.66;5034146;28;20029;-73
2022/01/20 05:19:45;;;;;;;0.10;0.10;;;;;;;25.02;16.37;97147.13;5034116;28;20059;-73
2022/01/20 05:22:11;;;;;;;0.25;0.20;;;;;;;25.01;16.34;97158.41;5005576;28;20026;-73
2022/01/20 05:24:36;;;;;;;0.52;0.10;;;;;;;25.07;16.42;97162.44;5015177;28;20465;-73
2022/01/20 05:27:01;;;;;;;0.10;0.10;;;;;;;25.05;16.45;97151.09;5014608;28;20030;-73
2022/01/20 05:29:27;;;;;;;0.10;0.10;;;;;;;25.07;16.39;97156.97;5015276;28;20018;-73
2022/01/20 05:31:53;;;;;;;0.10;0.10;;;;;;;25.16;16.17;97152.06;5015238;28;20033;-74
2022/01/20 05:34:18;;;;;;;0.13;0.13;;;;;;;25.12;16.46;97140.28;5014075;28;20445;-73
2022/01/20 05:36:46;;;;;;;0.20;0.20;;;;;;;25.14;16.15;97137.19;5015405;28;20017;-73
2022/01/20 05:39:11;;;;;;;0.10;0.10;;;;;;;25.11;16.38;97131.31;5014379;28;20049;-74
2022/01/20 05:41:37;;;;;;;0.25;0.17;;;;;;;25.10;16.25;97126.22;5014167;28;20030;-73
2022/01/20 05:44:02;;;;;;;0.10;0.10;;;;;;;25.17;16.02;97123.59;5014610;28;20038;-73
2022/01/20 05:46:35;;;;;;;0.20;0.20;;;;;;;25.22;15.94;97130.72;5013987;28;20172;-72
2022/01/20 05:49:08;;;;;;;0.10;0.10;;;;;;;25.17;16.31;97131.00;5014503;28;20125;-73
2022/01/20 05:51:35;;;;;;;0.10;0.10;;;;;;;25.26;15.89;97128.84;5014733;28;20060;-73
2022/01/20 05:54:01;;;;;;;0.15;0.15;;;;;;;25.37;16.05;97127.09;5014726;28;20056;-73
2022/01/20 05:56:26;;;;;;;0.20;0.10;;;;;;;25.25;16.02;97132.69;5019829;28;20022;-73
2022/01/20 05:58:51;;;;;;;0.10;0.10;;;;;;;25.33;16.13;97136.38;5023432;28;20029;-73
2022/01/20 06:01:17;;;;;;;0.10;0.10;;;;;;;25.23;16.02;97135.00;5024986;28;20026;-73
2022/01/20 06:03:42;;;;;;;0.10;0.10;;;;;;;25.29;15.86;97128.13;5025998;28;20029;-73
2022/01/20 06:06:09;;;;;;;0.10;0.10;;;;;;;25.41;15.94;97132.63;5026946;28;20033;-72
2022/01/20 06:08:37;;;;;;;0.10;0.10;;;;;;;25.36;16.05;97130.19;5028815;28;20053;-72
2022/01/20 06:11:03;;;;;;;0.10;0.10;;;;;;;25.39;15.74;97132.19;5015569;28;20037;-72
2022/01/20 06:13:28;;;;;;;0.32;0.20;;;;;;;25.33;15.98;97128.19;5031707;28;20095;-72
2022/01/20 06:15:54;;;;;;;0.10;0.10;;;;;;;25.49;15.79;97123.38;5030196;28;20034;-73
2022/01/20 06:18:19;;;;;;;0.15;0.15;;;;;;;25.43;15.93;97128.34;5033850;28;20034;-72
2022/01/20 06:20:45;;;;;;;0.10;0.10;;;;;;;25.45;15.96;97120.56;5033132;28;20085;-72
2022/01/20 06:23:10;;;;;;;0.40;0.17;;;;;;;25.43;16.03;97119.38;5051487;28;20032;-73
2022/01/20 06:25:36;;;;;;;0.10;0.10;;;;;;;25.51;16.01;97126.53;5052801;28;20025;-73
2022/01/20 06:28:01;;;;;;;0.28;0.10;;;;;;;25.47;16.05;97133.88;5052003;28;20045;-73
2022/01/20 06:30:27;;;;;;;0.20;0.17;;;;;;;25.59;15.62;97122.75;5052313;28;20032;-73
2022/01/20 06:32:53;;;;;;;0.10;0.10;;;;;;;25.51;15.90;97117.53;5052418;28;20037;-73
2022/01/20 06:35:18;;;;;;;0.10;0.10;;;;;;;25.73;15.58;97119.44;5053779;28;20026;-72
2022/01/20 06:37:43;;;;;;;0.10;0.10;;;;;;;25.79;15.40;97128.16;5053917;28;20030;-73
2022/01/20 06:40:09;;;;;;;0.20;0.17;;;;;;;25.91;15.46;97125.19;5054834;28;20025;-73
2022/01/20 06:42:35;;;;;;;0.10;0.10;;;;;;;25.73;15.47;97130.38;5047540;28;20037;-73
2022/01/20 06:45:01;;;;;;;1.35;0.10;;;;;;;25.82;15.45;97138.34;5034919;28;20033;-73
2022/01/20 06:47:27;;;;;;;0.10;0.10;;;;;;;25.66;15.80;97133.81;5036560;28;20045;-74
2022/01/20 06:49:52;;;;;;;0.25;0.10;;;;;;;25.83;15.77;97137.19;5037435;28;20074;-74
2022/01/20 06:52:17;;;;;;;0.22;0.10;;;;;;;25.94;15.37;97127.22;5037633;28;20401;-74
2022/01/20 06:54:43;;;;;;;0.10;0.10;;;;;;;26.05;15.52;97136.38;5038093;28;20025;-74
2022/01/20 06:57:08;;;;;;;0.10;0.10;;;;;;;25.83;15.65;97140.69;5037915;28;20363;-74
2022/01/20 06:59:34;;;;;;;1.13;0.28;;;;;;;25.86;15.71;97139.97;5037602;28;20464;-74
2022/01/20 07:01:59;;;;;;;0.10;0.10;;;;;;;26.07;15.12;97137.97;5038855;28;20025;-73
2022/01/20 07:04:27;;;;;;;1.73;0.20;;;;;;;25.95;15.45;97131.53;5039245;28;20498;-73
2022/01/20 07:06:53;;;;;;;0.80;0.20;;;;;;;26.00;15.61;97144.88;5040167;28;20045;-73
2022/01/20 07:09:19;;;;;;;0.98;0.20;;;;;;;25.90;15.62;97142.75;4987113;28;20436;-73
2022/01/20 07:11:44;;;;;;;1.35;0.17;;;;;;;25.97;15.35;97147.56;5036714;28;20125;-73
2022/01/20 07:14:10;;;;;;;0.65;0.20;;;;;;;25.88;15.78;97152.50;5036251;28;20036;-73
2022/01/20 07:16:35;;;;;;;0.10;0.10;;;;;;;25.80;15.56;97162.53;5036276;28;20025;-74
2022/01/20 07:19:00;;;;;;;0.10;0.10;;;;;;;25.87;15.55;97151.69;5037129;28;20043;-74
2022/01/20 07:21:27;;;;;;;3.40;0.20;;;;;;;25.76;15.54;97151.53;5018751;28;20017;-74
2022/01/20 07:23:52;;;;;;;0.55;0.17;;;;;;;26.14;15.56;97155.25;5036767;28;20383;-74
2022/01/20 07:26:17;;;;;;;0.10;0.10;;;;;;;26.01;15.56;97149.22;5036499;28;20018;-73
2022/01/20 07:28:43;;;;;;;2.03;0.20;;;;;;;26.22;15.31;97156.16;5036438;28;20025;-74
2022/01/20 07:31:08;;;;;;;0.13;0.13;;;;;;;26.14;15.40;97146.25;5036233;28;20033;-74
2022/01/20 07:33:34;;;;;;;0.10;0.10;;;;;;;26.12;15.41;97152.09;5036520;28;20049;-73
2022/01/20 07:35:59;;;;;;;0.32;0.10;;;;;;;26.27;15.41;97146.81;5037060;28;20048;-74
2022/01/20 07:38:25;;;;;;;0.40;0.17;;;;;;;26.19;15.44;97149.44;5040891;28;20025;-75
2022/01/20 07:40:50;;;;;;;1.92;0.25;;;;;;;26.18;15.66;97153.38;5036626;28;20021;-74
2022/01/20 07:43:16;;;;;;;0.22;0.22;;;;;;;26.25;15.76;97155.41;5036524;28;20071;-74
2022/01/20 07:45:47;;;;;;;0.13;0.13;;;;;;;26.38;15.31;97158.69;5019454;28;20404;-73
2022/01/20 07:48:13;;;;;;;0.20;0.20;;;;;;;26.18;15.65;97161.56;5019321;28;20045;-73
2022/01/20 07:50:38;;;;;;;0.63;0.30;;;;;;;26.17;15.77;97156.47;5036457;28;20029;-74
2022/01/20 07:53:03;;;;;;;0.65;0.20;;;;;;;26.23;15.55;97155.78;5038380;28;20021;-73
2022/01/20 07:55:29;;;;;;;1.58;0.20;;;;;;;26.24;15.69;97165.56;5019188;28;20045;-74
2022/01/20 07:57:55;;;;;;;0.20;0.20;;;;;;;26.22;15.64;97161.63;5035974;28;20082;-73
2022/01/20 08:00:21;;;;;;;0.22;0.20;;;;;;;26.29;15.44;97172.66;5036014;28;20021;-73
2022/01/20 08:02:47;;;;;;;0.10;0.10;;;;;;;26.17;15.67;97161.94;5035566;28;20072;-74
2022/01/20 08:05:12;;;;;;;7.63;3.30;;;;;;;26.31;15.38;97159.41;5037452;28;20025;-74
2022/01/20 08:07:38;;;;;;;4.50;2.10;;;;;;;26.37;15.30;97159.84;5037773;28;20022;-74
2022/01/20 08:10:04;;;;;;;7.05;3.35;;;;;;;26.30;15.46;97155.09;5036267;28;20026;-74
2022/01/20 08:12:29;;;;;;;5.72;2.58;;;;;;;26.12;15.60;97156.78;5037165;28;20476;-74
2022/01/20 08:14:56;;;;;;;1.75;1.40;;;;;;;26.25;15.57;97158.16;5001487;28;20109;-74
2022/01/20 08:17:21;;;;;;;3.97;1.90;;;;;;;26.21;15.65;97160.81;5036167;28;20109;-73
2022/01/20 08:19:47;;;;;;;4.57;1.23;;;;;;;26.18;15.64;97158.03;4986107;28;20034;-75
2022/01/20 08:22:17;;;;;;;1.83;0.80;;;;;;;26.03;15.79;97141.41;5036395;28;20034;-74
2022/01/20 08:24:42;;;;;;;1.38;0.70;;;;;;;26.25;15.48;97155.41;5035238;28;20033;-76
2022/01/20 08:27:09;;;;;;;0.57;0.57;;;;;;;26.31;15.51;97153.13;5037077;28;20029;-74
2022/01/20 08:29:37;;;;;;;1.75;0.47;;;;;;;26.41;15.64;97161.47;5038895;28;20037;-74
2022/01/20 08:32:03;;;;;;;0.50;0.20;;;;;;;26.29;15.68;97163.69;5037043;28;20029;-74
2022/01/20 08:34:29;;;;;;;0.25;0.25;;;;;;;26.21;15.81;97154.56;5038160;28;20025;-74
2022/01/20 08:36:55;;;;;;;0.43;0.25;;;;;;;26.39;15.50;97160.28;5021069;28;20032;-74
2022/01/20 08:39:44;;;;;;;3.00;0.65;;;;;;;26.41;15.64;97164.22;5038947;28;20043;-75
2022/01/20 08:42:07;;;;;;;0.20;0.20;;;;;;;26.39;15.59;97166.53;5038044;28;20369;-74
2022/01/20 08:44:34;;;;;;;0.70;0.25;;;;;;;26.38;15.54;97166.91;5038996;28;20033;-75
2022/01/20 08:47:01;;;;;;;0.30;0.20;;;;;;;26.31;15.46;97170.34;5036464;28;20045;-74
2022/01/20 08:52:13;;;;;;;1.02;0.30;;;;;;;26.24;15.70;97175.72;5023267;28;20053;-73
2022/01/20 08:54:38;;;;;;;0.65;0.22;;;;;;;26.32;15.38;97176.59;5001134;28;20038;-74
2022/01/20 08:57:13;;;;;;;0.30;0.30;;;;;;;26.21;15.63;97174.50;5037405;28;20066;-74
2022/01/20 08:59:41;;;;;;;1.95;0.50;;;;;;;26.04;15.74;97175.84;5036869;28;20030;-74
2022/01/20 09:02:06;;;;;;;1.50;0.40;;;;;;;26.23;15.77;97180.41;5037868;28;20041;-73
2022/01/20 09:04:32;;;;;;;1.63;0.40;;;;;;;26.28;15.87;97176.56;5035455;28;20029;-74
2022/01/20 09:06:58;;;;;;;0.80;0.38;;;;;;;26.23;15.58;97179.59;5034830;28;20036;-75
2022/01/20 09:09:23;;;;;;;1.10;0.50;;;;;;;26.28;15.61;97181.25;5035114;28;20029;-73
2022/01/20 09:12:02;;;;;;;2.38;0.40;;;;;;;26.13;15.57;97174.78;5035395;28;20055;-74
2022/01/20 09:17:12;;;;;;;0.57;0.40;;;;;;;26.56;15.12;97180.81;5034125;28;20035;-74
2022/01/20 09:19:38;;;;;;;0.50;0.28;;;;;;;26.40;15.20;97184.53;5034638;28;20030;-74
2022/01/20 09:22:05;;;;;;;0.43;0.30;;;;;;;26.41;15.13;97183.38;5033933;28;20021;-74
2022/01/20 09:24:30;;;;;;;0.30;0.30;;;;;;;26.47;15.10;97183.06;5034369;28;20104;-73
2022/01/20 09:26:56;;;;;;;1.15;0.30;;;;;;;26.54;15.11;97189.41;5033802;28;20491;-74
2022/01/20 09:29:21;;;;;;;0.40;0.40;;;;;;;26.63;15.09;97174.69;5034417;28;20067;-74
2022/01/20 09:31:49;;;;;;;0.30;0.20;;;;;;;26.42;15.13;97192.38;5034238;28;20025;-74
2022/01/20 09:34:15;;;;;;;0.20;0.20;;;;;;;26.47;14.99;97178.38;5033972;28;20071;-74
2022/01/20 09:36:42;;;;;;;0.20;0.20;;;;;;;26.65;14.91;97178.66;5016116;28;20030;-73
2022/01/20 09:39:07;;;;;;;0.30;0.30;;;;;;;26.52;15.01;97178.03;4983251;28;20037;-74
2022/01/20 09:41:33;;;;;;;0.35;0.35;;;;;;;26.61;14.79;97175.84;5034018;28;20396;-73
2022/01/20 09:43:58;;;;;;;0.22;0.22;;;;;;;26.66;14.92;97172.00;5034143;28;20033;-73
2022/01/20 09:46:25;;;;;;;0.57;0.30;;;;;;;26.55;14.89;97169.09;5015556;28;20403;-74
2022/01/20 09:48:50;;;;;;;0.52;0.30;;;;;;;26.52;15.11;97174.53;5016492;28;20037;-74
2022/01/20 09:51:16;;;;;;;1.15;0.30;;;;;;;26.46;15.15;97181.47;5034367;28;20372;-73
2022/01/20 09:53:41;;;;;;;1.20;0.50;;;;;;;26.32;15.41;97182.88;5033653;28;20460;-73
2022/01/20 09:56:06;;;;;;;0.30;0.30;;;;;;;26.36;15.21;97177.44;5033710;28;20029;-72
2022/01/20 09:58:32;;;;;;;0.88;0.22;;;;;;;26.44;15.31;97195.56;5033608;28;20075;-73
2022/01/20 10:01:02;;;;;;;1.25;0.40;;;;;;;26.42;15.41;97181.44;5036411;28;20026;-73
2022/01/20 10:03:29;;;;;;;0.98;0.40;;;;;;;26.50;15.25;97182.31;5037193;28;20029;-72
2022/01/20 10:05:54;;;;;;;0.43;0.30;;;;;;;26.50;15.54;97187.81;5035411;28;20033;-73
2022/01/20 10:08:32;;;;;;;0.45;0.40;;;;;;;26.60;15.24;97187.16;5036287;28;20152;-73
2022/01/20 10:10:59;;;;;;;0.52;0.30;;;;;;;26.66;15.25;97193.91;5001342;28;20044;-74
2022/01/20 10:13:29;;;;;;;0.30;0.30;;;;;;;26.51;15.40;97190.19;5034942;28;20494;-73
2022/01/20 10:16:12;;;;;;;1.08;0.50;;;;;;;26.53;15.52;97193.31;4984097;28;20037;-74
2022/01/20 10:18:48;;;;;;;0.80;0.40;;;;;;;26.61;15.45;97195.00;5034237;28;20532;-75
2022/01/20 10:21:14;;;;;;;1.60;0.68;;;;;;;26.44;15.45;97195.56;5036297;28;20029;-74
2022/01/20 10:23:41;;;;;;;5.45;1.45;;;;;;;26.43;15.35;97194.75;5038266;28;20032;-74
2022/01/20 10:26:20;;;;;;;2.17;1.30;;;;;;;26.41;15.45;97194.34;5037470;28;20017;-75
2022/01/20 10:29:03;;;;;;;1.60;0.98;;;;;;;26.48;15.24;97193.66;5037584;28;20072;-75
2022/01/20 10:31:33;;;;;;;2.70;1.05;;;;;;;26.38;15.54;97199.78;5037345;28;20120;-74
2022/01/20 10:33:58;;;;;;;2.38;1.15;;;;;;;26.33;15.35;97189.91;5037436;28;20034;-75
2022/01/20 10:36:24;;;;;;;2.50;0.95;;;;;;;26.33;15.75;97184.44;5037621;28;20018;-75
2022/01/20 10:38:53;;;;;;;2.13;1.00;;;;;;;26.30;15.42;97195.34;5019479;28;20361;-75
2022/01/20 10:41:33;;;;;;;2.53;0.63;;;;;;;26.26;15.73;97184.34;5036975;28;20521;-75
2022/01/20 10:44:05;;;;;;;1.00;0.52;;;;;;;26.56;15.31;97192.59;5037682;28;20403;-76
2022/01/20 10:46:44;;;;;;;0.98;0.73;;;;;;;26.50;15.40;97193.28;5037778;28;20021;-73
2022/01/20 10:49:10;;;;;;;1.23;0.80;;;;;;;26.64;15.04;97190.75;5036773;28;20029;-73
2022/01/20 10:51:35;;;;;;;1.73;1.00;;;;;;;26.62;14.99;97198.56;5038696;28;20040;-73
2022/01/20 10:54:10;;;;;;;1.77;0.88;;;;;;;26.34;15.53;97196.97;5037934;28;20030;-73
2022/01/20 10:56:55;;;;;;;1.17;0.60;;;;;;;26.40;15.58;97195.50;5039352;28;20044;-75
2022/01/20 10:59:22;;;;;;;1.45;0.80;;;;;;;26.45;15.39;97202.59;5037306;28;20037;-75
2022/01/20 11:02:05;;;;;;;1.30;0.70;;;;;;;26.40;15.34;97200.97;5018952;28;20022;-74
2022/01/20 11:04:31;;;;;;;0.65;0.60;;;;;;;26.46;15.37;97198.72;5036951;28;20021;-74
2022/01/20 11:07:04;;;;;;;0.60;0.60;;;;;;;26.36;15.52;97196.63;5036436;28;20044;-75
2022/01/20 11:09:33;;;;;;;1.60;0.80;;;;;;;26.42;15.27;97190.47;4971543;28;20084;-74
2022/01/20 11:11:58;;;;;;;1.17;0.63;;;;;;;26.49;15.40;97197.16;5021115;28;20214;-74
2022/01/20 11:14:23;;;;;;;0.60;0.60;;;;;;;26.54;15.36;97194.09;5020196;28;20025;-74
2022/01/20 11:16:49;;;;;;;0.77;0.60;;;;;;;26.47;15.38;97199.50;4986404;28;20088;-74
2022/01/20 11:19:19;;;;;;;1.95;0.65;;;;;;;26.51;15.36;97203.06;5038315;28;20380;-74
2022/01/20 11:21:45;;;;;;;0.88;0.50;;;;;;;26.49;15.19;97203.44;5022168;28;20037;-73
2022/01/20 11:24:24;;;;;;;0.60;0.50;;;;;;;26.43;15.28;97200.22;5038974;28;20464;-74
2022/01/20 11:26:56;;;;;;;1.33;0.60;;;;;;;26.46;15.35;97195.16;5040468;28;20026;-74
2022/01/20 11:29:23;;;;;;;1.48;0.60;;;;;;;26.43;15.44;97205.69;5038306;28;20192;-74
2022/01/20 11:31:49;;;;;;;1.75;0.60;;;;;;;26.53;15.25;97204.28;5037240;28;20048;-76
2022/01/20 11:34:15;;;;;;;1.23;0.80;;;;;;;26.31;15.64;97210.63;5020100;28;20022;-75
2022/01/20 11:36:41;;;;;;;2.08;0.88;;;;;;;26.32;15.46;97212.19;5037803;28;20411;-74
2022/01/20 11:39:06;;;;;;;0.88;0.63;;;;;;;26.54;15.33;97205.06;5038114;28;20025;-74
2022/01/20 11:41:43;;;;;;;1.45;0.60;;;;;;;26.46;15.60;97208.84;5045893;28;20025;-75
2022/01/20 11:44:16;;;;;;;0.60;0.60;;;;;;;26.36;15.54;97205.59;5038225;28;20033;-75
2022/01/20 11:46:46;;;;;;;1.50;0.60;;;;;;;26.52;15.40;97215.59;5037404;28;20056;-74
2022/01/20 11:49:16;;;;;;;1.50;0.50;;;;;;;26.39;15.61;97215.03;5041027;28;20109;-73
2022/01/20 11:51:43;;;;;;;0.40;0.40;;;;;;;26.39;15.49;97221.31;5038544;28;20102;-74
2022/01/20 11:54:08;;;;;;;2.97;0.60;;;;;;;26.33;15.57;97228.25;5042686;28;20052;-74
2022/01/20 11:56:41;;;;;;;0.70;0.50;;;;;;;26.38;15.47;97229.88;5042431;28;20034;-74
2022/01/20 11:59:08;;;;;;;0.50;0.47;;;;;;;26.40;15.30;97233.81;5038729;28;20076;-75
2022/01/20 12:01:51;;;;;;;0.70;0.60;;;;;;;26.34;15.41;97226.31;5038575;28;20283;-74
2022/01/20 12:04:16;;;;;;;0.68;0.57;;;;;;;26.48;15.03;97223.00;5036320;28;20029;-75
2022/01/20 12:06:44;;;;;;;1.42;0.80;;;;;;;26.49;15.00;97219.06;5037293;28;20112;-75
2022/01/20 12:09:10;;;;;;;3.63;1.38;;;;;;;26.41;15.28;97229.94;5037104;28;20063;-74
2022/01/20 12:11:45;;;;;;;2.05;1.20;;;;;;;26.52;15.09;97230.06;5036104;28;20030;-73
2022/01/20 12:14:11;;;;;;;1.75;0.98;;;;;;;26.62;15.09;97236.91;5036749;28;20044;-74
2022/01/20 12:16:37;;;;;;;3.75;1.00;;;;;;;26.51;15.43;97238.66;5039325;28;20367;-73
2022/01/20 12:19:05;;;;;;;1.83;0.90;;;;;;;26.61;15.23;97246.22;5038631;28;20104;-73
2022/01/20 12:21:30;;;;;;;0.63;0.60;;;;;;;26.41;15.17;97251.84;5037686;28;20036;-74
2022/01/20 12:23:56;;;;;;;0.60;0.60;;;;;;;26.48;15.19;97239.41;5036663;28;20026;-74
2022/01/20 12:26:21;;;;;;;0.82;0.70;;;;;;;26.53;15.30;97241.84;5036986;28;20026;-73
2022/01/20 12:28:47;;;;;;;1.90;0.63;;;;;;;26.52;15.28;97256.69;5037122;28;20037;-74
2022/01/20 12:31:13;;;;;;;0.60;0.60;;;;;;;26.50;15.37;97259.00;5036217;28;20473;-74
2022/01/20 12:33:41;;;;;;;2.03;0.90;;;;;;;26.47;15.54;97255.03;5035756;28;20029;-74
2022/01/20 12:36:13;;;;;;;1.05;0.60;;;;;;;26.49;15.19;97262.88;5018627;28;20034;-75
2022/01/20 12:38:39;;;;;;;1.05;0.80;;;;;;;26.68;15.17;97254.59;5036723;28;20088;-74